createdAt,value
2022-12-16T00:01:36.738Z,100156.59
2022-12-16T00:04:04.744Z,100160.88
2022-12-16T00:06:34.788Z,100166.88
2022-12-16T00:09:04.029Z,100166.16
2022-12-16T00:11:32.702Z,100159.66
2022-12-16T00:14:00.547Z,100159.22
2022-12-16T00:16:28.656Z,100156.06
2022-12-16T00:18:56.444Z,100168.31
2022-12-16T00:21:28.638Z,100165.72
2022-12-16T00:23:56.960Z,100164.66
2022-12-16T00:26:26.169Z,100155.94
2022-12-16T00:28:53.927Z,100161.13
2022-12-16T00:31:22.693Z,100158.53
2022-12-16T00:33:50.500Z,100152.38
2022-12-16T00:36:18.312Z,100150.09
2022-12-16T00:38:46.070Z,100150.84
2022-12-16T00:41:13.823Z,100145.72
2022-12-16T00:43:42.924Z,100144.03
2022-12-16T00:46:10.688Z,100150.00
2022-12-16T00:48:38.458Z,100145.16
2022-12-16T00:51:07.085Z,100147.63
2022-12-16T00:53:35.910Z,100147.53
2022-12-16T00:56:05.090Z,100154.59
2022-12-16T00:58:32.952Z,100154.66
2022-12-16T01:01:02.421Z,100148.72
2022-12-16T01:03:30.348Z,100153.50
2022-12-16T01:05:58.407Z,100160.88
2022-12-16T01:08:26.316Z,100155.63
2022-12-16T01:10:56.673Z,100160.03
2022-12-16T01:13:25.625Z,100166.31
2022-12-16T01:15:53.396Z,100166.09
2022-12-16T01:18:22.804Z,100165.19
2022-12-16T01:20:50.505Z,100162.59
2022-12-16T01:23:18.307Z,100165.53
2022-12-16T01:25:46.054Z,100162.88
2022-12-16T01:28:13.833Z,100167.84
2022-12-16T01:30:41.620Z,100165.16
2022-12-16T01:33:10.756Z,100169.00
2022-12-16T01:35:56.280Z,100174.78
2022-12-16T01:38:24.620Z,100173.84
2022-12-16T01:40:52.615Z,100178.75
2022-12-16T01:43:26.720Z,100167.88
2022-12-16T01:45:59.039Z,100181.03
2022-12-16T01:48:38.614Z,100175.91
2022-12-16T01:51:12.980Z,100177.59
2022-12-16T01:56:32.886Z,100189.69
2022-12-16T01:59:01.603Z,100190.72
2022-12-16T02:01:30.114Z,100192.09
2022-12-16T02:04:01.725Z,100193.03
2022-12-16T02:06:31.204Z,100195.81
2022-12-16T02:09:01.975Z,100194.25
2022-12-16T02:15:09.351Z,100191.81
2022-12-16T02:17:46.341Z,100193.50
2022-12-16T02:20:47.143Z,100190.25
2022-12-16T02:23:35.985Z,100189.25
2022-12-16T02:26:29.287Z,100191.81
2022-12-16T02:29:19.390Z,100196.19
2022-12-16T02:31:55.264Z,100200.38
2022-12-16T02:34:31.597Z,100190.25
2022-12-16T02:37:12.121Z,100196.81
2022-12-16T02:39:45.773Z,100196.78
2022-12-16T02:42:18.834Z,100194.25
2022-12-16T02:47:41.259Z,100205.78
2022-12-16T02:50:19.664Z,100212.88
2022-12-16T02:52:47.736Z,100215.56
2022-12-16T02:55:16.096Z,100214.53
2022-12-16T02:58:07.680Z,100216.81
2022-12-16T03:03:38.112Z,100219.44
2022-12-16T03:06:07.093Z,100218.00
2022-12-16T03:08:38.845Z,100215.38
2022-12-16T03:11:08.192Z,100212.69
2022-12-16T03:13:40.507Z,100212.88
2022-12-16T03:16:12.047Z,100219.00
2022-12-16T03:21:35.445Z,100208.56
2022-12-16T03:24:07.021Z,100222.03
2022-12-16T03:26:40.162Z,100227.28
2022-12-16T03:29:12.936Z,100222.31
2022-12-16T03:31:45.448Z,100222.13
2022-12-16T03:37:10.534Z,100217.81
2022-12-16T03:39:43.717Z,100222.13
2022-12-16T03:42:14.987Z,100222.69
2022-12-16T03:44:44.407Z,100219.88
2022-12-16T03:47:14.956Z,100222.31
2022-12-16T03:49:47.506Z,100210.75
2022-12-16T03:55:00.402Z,100220.22
2022-12-16T03:57:28.180Z,100228.75
2022-12-16T03:59:55.857Z,100238.88
2022-12-16T04:02:23.768Z,100236.28
2022-12-16T04:04:52.965Z,100236.34
2022-12-16T04:10:10.319Z,100223.91
2022-12-16T04:12:55.331Z,100230.88
2022-12-16T04:15:40.667Z,100235.19
2022-12-16T04:18:33.623Z,100247.16
2022-12-16T04:21:21.277Z,100235.25
2022-12-16T04:24:10.249Z,100236.81
2022-12-16T04:26:59.529Z,100236.69
2022-12-16T04:29:27.274Z,100242.59
2022-12-16T04:31:55.172Z,100245.47
2022-12-16T04:34:29.338Z,100256.91
2022-12-16T04:37:17.841Z,100252.69
2022-12-16T04:40:03.399Z,100253.31
2022-12-16T04:45:51.968Z,100260.25
2022-12-16T04:48:37.109Z,100265.31
2022-12-16T04:51:22.390Z,100264.53
2022-12-16T04:54:14.228Z,100271.50
2022-12-16T04:56:59.737Z,100275.22
2022-12-16T05:00:00.524Z,100276.88
2022-12-16T05:02:45.798Z,100280.19
2022-12-16T05:05:30.945Z,100279.47
2022-12-16T05:08:30.876Z,100287.06
2022-12-16T05:11:17.513Z,100283.50
2022-12-16T05:14:02.829Z,100288.88
2022-12-16T05:16:48.285Z,100298.50
2022-12-16T05:19:33.680Z,100300.63
2022-12-16T05:22:18.820Z,100298.75
2022-12-16T05:25:04.119Z,100296.56
2022-12-16T05:27:50.858Z,100304.94
2022-12-16T05:33:38.976Z,100304.00
2022-12-16T05:36:24.409Z,100291.03
2022-12-16T05:39:10.492Z,100307.41
2022-12-16T05:41:55.828Z,100318.63
2022-12-16T05:44:42.889Z,100301.13
2022-12-16T05:47:29.008Z,100314.31
2022-12-16T05:50:14.202Z,100322.28
2022-12-16T05:53:00.081Z,100323.00
2022-12-16T05:55:45.356Z,100311.44
2022-12-16T05:58:30.890Z,100326.44
2022-12-16T06:01:17.428Z,100308.91
2022-12-16T06:04:02.879Z,100330.78
2022-12-16T06:06:48.166Z,100336.75
2022-12-16T06:09:33.261Z,100347.06
2022-12-16T06:12:18.403Z,100346.38
2022-12-16T06:15:03.850Z,100352.41
2022-12-16T06:17:50.295Z,100359.47
2022-12-16T06:20:35.445Z,100365.31
2022-12-16T06:23:24.108Z,100375.81
2022-12-16T06:26:10.718Z,100377.34
2022-12-16T06:28:55.981Z,100379.91
2022-12-16T06:31:41.427Z,100388.41
2022-12-16T06:34:28.001Z,100389.97
2022-12-16T06:37:13.295Z,100390.78
2022-12-16T06:39:58.405Z,100394.28
2022-12-16T06:42:43.739Z,100396.03
2022-12-16T06:45:34.315Z,100404.63
2022-12-16T06:48:19.920Z,100403.94
2022-12-16T06:51:06.702Z,100406.47
2022-12-16T06:53:51.707Z,100413.50
2022-12-16T06:56:37.030Z,100420.28
2022-12-16T06:59:22.497Z,100422.91
2022-12-16T07:02:07.539Z,100430.59
2022-12-16T07:04:52.592Z,100438.16
2022-12-16T07:07:39.213Z,100446.00
2022-12-16T07:10:25.281Z,100456.31
2022-12-16T07:13:10.634Z,100458.91
2022-12-16T07:15:56.094Z,100472.75
2022-12-16T07:18:41.141Z,100460.72
2022-12-16T07:21:26.232Z,100471.00
2022-12-16T07:24:12.797Z,100467.38
2022-12-16T07:26:58.138Z,100465.72
2022-12-16T07:29:43.286Z,100470.16
2022-12-16T07:32:28.701Z,100475.25
2022-12-16T07:35:13.772Z,100489.16
2022-12-16T07:37:59.371Z,100493.34
2022-12-16T07:40:46.208Z,100500.41
2022-12-16T07:43:31.694Z,100506.56
2022-12-16T07:46:17.227Z,100507.41
2022-12-16T07:49:07.740Z,100510.72
2022-12-16T07:51:53.085Z,100512.25
2022-12-16T07:54:38.380Z,100513.88
2022-12-16T07:57:25.173Z,100516.25
2022-12-16T08:00:10.598Z,100518.91
2022-12-16T08:02:58.945Z,100519.75
2022-12-16T08:05:44.121Z,100525.88
2022-12-16T08:08:29.483Z,100526.63
2022-12-16T08:11:14.790Z,100526.56
2022-12-16T08:14:01.340Z,100531.75
2022-12-16T08:16:46.753Z,100543.75
2022-12-16T08:19:31.949Z,100541.19
2022-12-16T08:22:28.526Z,100556.19
2022-12-16T08:25:13.774Z,100553.59
2022-12-16T08:27:59.158Z,100556.09
2022-12-16T08:30:45.838Z,100558.44
2022-12-16T08:33:31.093Z,100556.88
2022-12-16T08:36:31.602Z,100557.63
2022-12-16T08:39:22.188Z,100554.97
2022-12-16T08:42:07.137Z,100550.66
2022-12-16T08:44:52.469Z,100556.59
2022-12-16T08:47:39.528Z,100558.13
2022-12-16T08:50:25.779Z,100564.41
2022-12-16T08:53:10.984Z,100572.84
2022-12-16T08:55:56.406Z,100585.72
2022-12-16T08:58:53.315Z,100585.78
2022-12-16T09:01:41.161Z,100586.41
2022-12-16T09:04:27.949Z,100585.44
2022-12-16T09:07:13.129Z,100582.88
2022-12-16T09:09:58.215Z,100597.38
2022-12-16T09:12:43.642Z,100593.66
2022-12-16T09:15:29.047Z,100597.16
2022-12-16T09:18:11.542Z,100593.53
2022-12-16T09:20:58.277Z,100595.03
2022-12-16T09:23:43.669Z,100601.63
2022-12-16T09:26:29.216Z,100604.72
2022-12-16T09:29:14.329Z,100609.72
2022-12-16T09:31:59.667Z,100616.00
2022-12-16T09:34:44.748Z,100614.97
2022-12-16T09:37:31.603Z,100616.66
2022-12-16T09:40:16.781Z,100616.66
2022-12-16T09:43:08.733Z,100630.28
2022-12-16T09:46:02.832Z,100623.44
2022-12-16T09:48:54.088Z,100625.00
2022-12-16T09:51:39.973Z,100623.69
2022-12-16T09:54:30.538Z,100638.09
2022-12-16T09:57:18.356Z,100637.19
2022-12-16T10:00:08.446Z,100636.94
2022-12-16T10:02:54.169Z,100644.47
2022-12-16T10:05:54.896Z,100650.13
2022-12-16T10:08:47.867Z,100652.53
2022-12-16T10:11:40.989Z,100658.38
2022-12-16T10:14:31.642Z,100653.81
2022-12-16T10:17:27.569Z,100663.66
2022-12-16T10:20:19.764Z,100655.41
2022-12-16T10:23:15.816Z,100660.75
2022-12-16T10:26:08.417Z,100652.56
2022-12-16T10:29:03.663Z,100661.16
2022-12-16T10:31:49.708Z,100658.63
2022-12-16T10:34:38.794Z,100663.66
2022-12-16T10:37:23.960Z,100664.06
2022-12-16T10:40:16.447Z,100674.63
2022-12-16T10:43:08.130Z,100676.97
2022-12-16T10:46:00.399Z,100679.41
2022-12-16T10:48:54.974Z,100669.88
2022-12-16T10:51:39.809Z,100666.91
2022-12-16T10:54:46.812Z,100674.97
2022-12-16T10:57:37.603Z,100680.66
2022-12-16T11:00:32.104Z,100668.00
2022-12-16T11:03:36.163Z,100677.41
2022-12-16T11:06:22.101Z,100676.31
2022-12-16T11:09:07.523Z,100673.69
2022-12-16T11:11:52.825Z,100671.59
2022-12-16T11:14:59.502Z,100663.59
2022-12-16T11:17:45.490Z,100666.84
2022-12-16T11:20:35.273Z,100665.91
2022-12-16T11:23:38.385Z,100658.22
2022-12-16T11:26:27.747Z,100669.94
2022-12-16T11:29:30.770Z,100672.31
2022-12-16T11:32:20.392Z,100672.00
2022-12-16T11:35:11.560Z,100675.16
2022-12-16T11:38:00.445Z,100674.09
2022-12-16T11:40:47.943Z,100673.16
2022-12-16T11:43:36.083Z,100672.75
2022-12-16T11:46:28.054Z,100671.53
2022-12-16T11:49:23.424Z,100671.88
2022-12-16T11:52:35.867Z,100677.34
2022-12-16T11:55:56.058Z,100683.53
2022-12-16T11:58:42.445Z,100678.41
2022-12-16T12:01:34.227Z,100686.53
2022-12-16T12:04:19.497Z,100684.31
2022-12-16T12:07:22.285Z,100689.41
2022-12-16T12:10:16.495Z,100688.59
2022-12-16T12:13:08.458Z,100679.25
2022-12-16T12:16:02.213Z,100652.50
2022-12-16T12:19:01.512Z,100694.19
2022-12-16T12:21:53.987Z,100697.34
2022-12-16T12:24:56.279Z,100671.78
2022-12-16T12:27:49.649Z,100699.41
2022-12-16T12:30:44.247Z,100689.72
2022-12-16T12:33:45.191Z,100701.69
2022-12-16T12:36:38.268Z,100697.38
2022-12-16T12:39:36.516Z,100688.09
2022-12-16T12:42:35.193Z,100682.59
2022-12-16T12:45:42.023Z,100691.28
2022-12-16T12:48:33.671Z,100697.38
2022-12-16T12:51:26.219Z,100688.09
2022-12-16T12:54:21.926Z,100655.63
2022-12-16T12:57:10.351Z,100674.31
2022-12-16T13:00:08.186Z,100687.84
2022-12-16T13:03:06.974Z,100703.03
2022-12-16T13:05:55.670Z,100715.13
2022-12-16T13:08:57.918Z,100718.31
2022-12-16T13:11:43.429Z,100677.00
2022-12-16T13:15:02.720Z,100711.94
2022-12-16T13:17:47.866Z,100717.19
2022-12-16T13:20:56.713Z,100711.31
2022-12-16T13:23:51.514Z,100714.03
2022-12-16T13:26:38.799Z,100708.94
2022-12-16T13:29:36.112Z,100716.09
2022-12-16T13:32:41.750Z,100698.75
2022-12-16T13:35:45.620Z,100720.09
2022-12-16T13:38:40.718Z,100737.38
2022-12-16T13:42:01.045Z,100737.91
2022-12-16T13:45:14.254Z,100742.44
2022-12-16T13:48:18.646Z,100751.19
2022-12-16T13:51:18.928Z,100759.19
2022-12-16T13:54:10.311Z,100758.63
2022-12-16T13:57:03.888Z,100744.38
2022-12-16T13:59:51.168Z,100749.41
2022-12-16T14:02:44.875Z,100765.81
2022-12-16T14:05:38.356Z,100761.66
2022-12-16T14:08:29.875Z,100770.41
2022-12-16T14:11:19.884Z,100742.38
2022-12-16T14:14:15.681Z,100773.16
2022-12-16T14:17:09.447Z,100769.66
2022-12-16T14:20:10.481Z,100765.84
2022-12-16T14:23:32.474Z,100755.78
2022-12-16T14:26:22.315Z,100760.34
2022-12-16T14:29:07.196Z,100786.47
2022-12-16T14:31:56.193Z,100792.72
2022-12-16T14:34:45.851Z,100792.59
2022-12-16T14:37:32.845Z,100805.59
2022-12-16T14:40:18.564Z,100804.78
2022-12-16T14:43:12.987Z,100804.78
2022-12-16T14:46:06.227Z,100807.28
2022-12-16T14:48:55.289Z,100782.91
2022-12-16T14:51:46.100Z,100810.09
2022-12-16T14:54:45.866Z,100818.81
2022-12-16T14:57:36.299Z,100821.41
2022-12-16T15:00:32.241Z,100821.47
2022-12-16T15:03:24.120Z,100822.41
2022-12-16T15:06:11.189Z,100804.22
2022-12-16T15:09:10.276Z,100819.25
2022-12-16T15:11:57.462Z,100658.56
2022-12-16T15:14:45.538Z,100848.47
2022-12-16T15:17:39.431Z,100842.53
2022-12-16T15:20:35.727Z,100846.97
2022-12-16T15:23:21.151Z,100860.66
2022-12-16T15:26:13.739Z,100860.66
2022-12-16T15:29:01.509Z,100870.06
2022-12-16T15:31:51.635Z,100879.59
2022-12-16T15:34:47.884Z,100889.19
2022-12-16T15:37:39.850Z,100888.19
2022-12-16T15:40:38.865Z,100895.47
2022-12-16T15:43:24.346Z,100892.53
2022-12-16T15:46:10.717Z,100902.06
2022-12-16T15:48:56.213Z,100906.25
2022-12-16T15:51:48.645Z,100903.72
2022-12-16T15:54:36.573Z,100910.53
2022-12-16T15:57:22.435Z,100905.34
2022-12-16T16:00:14.934Z,100908.72
2022-12-16T16:03:06.077Z,100882.59
2022-12-16T16:05:54.112Z,100924.22
2022-12-16T16:08:40.764Z,100899.63
2022-12-16T16:11:26.805Z,100915.94
2022-12-16T16:14:14.318Z,100937.06
2022-12-16T16:16:59.763Z,100945.63
2022-12-16T16:19:46.003Z,100931.06
2022-12-16T16:22:33.136Z,100943.78
2022-12-16T16:25:20.027Z,100931.06
2022-12-16T16:28:05.512Z,100951.38
2022-12-16T16:30:50.755Z,100930.22
2022-12-16T16:33:36.115Z,100951.28
2022-12-16T16:36:32.053Z,100950.44
2022-12-16T16:39:17.443Z,100963.34
2022-12-16T16:42:04.300Z,100964.22
2022-12-16T16:44:49.698Z,100968.66
2022-12-16T16:47:36.098Z,100976.22
2022-12-16T16:50:21.642Z,100967.94
2022-12-16T16:53:07.044Z,100988.16
2022-12-16T16:55:52.161Z,100986.72
2022-12-16T16:58:44.372Z,100971.53
2022-12-16T17:01:31.722Z,101000.41
2022-12-16T17:04:17.082Z,101003.78
2022-12-16T17:07:01.566Z,101003.78
2022-12-16T17:09:46.689Z,100964.69
2022-12-16T17:12:37.476Z,101007.94
2022-12-16T17:15:45.739Z,100981.88
2022-12-16T17:18:30.849Z,101011.44
2022-12-16T17:21:16.085Z,100990.22
2022-12-16T17:24:01.130Z,101015.59
2022-12-16T17:26:46.591Z,101016.44
2022-12-16T17:29:40.891Z,100954.53
2022-12-16T17:32:36.139Z,101019.84
2022-12-16T17:35:21.583Z,101023.31
2022-12-16T17:38:07.129Z,101026.78
2022-12-16T17:40:52.475Z,101025.22
2022-12-16T17:43:40.856Z,101029.44
2022-12-16T17:46:30.036Z,101031.16
2022-12-16T17:49:17.480Z,101042.41
2022-12-16T17:52:03.296Z,101055.38
2022-12-16T17:54:48.475Z,101042.50
2022-12-16T17:57:33.966Z,101034.34
2022-12-16T18:00:19.421Z,101062.38
2022-12-16T18:03:05.035Z,101067.47
2022-12-16T18:05:51.895Z,101070.88
2022-12-16T18:08:37.357Z,101076.00
2022-12-16T18:11:22.595Z,101069.06
2022-12-16T18:14:07.659Z,101076.91
2022-12-16T18:16:52.737Z,101077.91
2022-12-16T18:19:38.116Z,101070.06
2022-12-16T18:22:24.770Z,101074.16
2022-12-16T18:25:10.192Z,101081.97
2022-12-16T18:27:55.809Z,101088.06
2022-12-16T18:30:41.144Z,101087.19
2022-12-16T18:33:26.995Z,101090.69
2022-12-16T18:36:12.535Z,101101.03
2022-12-16T18:38:59.416Z,101099.22
2022-12-16T18:41:44.771Z,101096.78
2022-12-16T18:44:32.265Z,101107.09
2022-12-16T18:47:18.218Z,101102.66
2022-12-16T18:50:03.694Z,101100.13
2022-12-16T18:52:48.881Z,101102.75
2022-12-16T18:55:35.489Z,101104.41
2022-12-16T18:58:49.742Z,101104.53
2022-12-16T19:01:28.164Z,101113.97
2022-12-16T19:04:14.465Z,101097.66
2022-12-16T19:07:00.044Z,101113.00
2022-12-16T19:09:45.536Z,101120.75
2022-12-16T19:12:32.000Z,101114.69
2022-12-16T19:15:17.399Z,101122.44
2022-12-16T19:18:02.904Z,101121.59
2022-12-16T19:20:47.833Z,101122.44
2022-12-16T19:23:33.920Z,101132.06
2022-12-16T19:26:25.750Z,101131.06
2022-12-16T19:29:12.563Z,101128.53
2022-12-16T19:31:57.869Z,101135.38
2022-12-16T19:34:51.511Z,101134.56
2022-12-16T19:37:37.050Z,101145.00
2022-12-16T19:40:22.449Z,101158.06
2022-12-16T19:43:07.965Z,101147.66
2022-12-16T19:48:59.878Z,101156.34
2022-12-16T19:51:45.515Z,101153.66
2022-12-16T19:54:31.196Z,101156.34
2022-12-16T19:57:16.740Z,101163.31
2022-12-16T20:00:01.850Z,101175.34
2022-12-16T20:02:58.235Z,101180.44
2022-12-16T20:05:43.456Z,101181.38
2022-12-16T20:08:28.721Z,101179.59
2022-12-16T20:11:13.998Z,101183.19
2022-12-16T20:13:59.148Z,101189.97
2022-12-16T20:16:45.914Z,101189.97
2022-12-16T20:19:32.234Z,101187.41
2022-12-16T20:22:17.558Z,101189.94
2022-12-16T20:25:02.751Z,101195.94
2022-12-16T20:27:47.867Z,101196.81
2022-12-16T20:30:33.355Z,101192.63
2022-12-16T20:33:18.824Z,101192.63
2022-12-16T20:36:15.303Z,101193.47
2022-12-16T20:38:56.965Z,101197.81
2022-12-16T20:41:42.496Z,101208.22
2022-12-16T20:44:30.284Z,101208.16
2022-12-16T20:47:15.664Z,101216.91
2022-12-16T20:50:01.107Z,101208.22
2022-12-16T20:52:47.524Z,101212.59
2022-12-16T20:55:33.299Z,101211.81
2022-12-16T20:58:18.605Z,101217.13
2022-12-16T21:01:03.781Z,101226.69
2022-12-16T21:03:49.027Z,101231.09
2022-12-16T21:06:34.369Z,101231.28
2022-12-16T21:09:20.966Z,101237.28
2022-12-16T21:12:06.022Z,101236.38
2022-12-16T21:14:51.655Z,101234.69
2022-12-16T21:17:37.054Z,101244.97
2022-12-16T21:20:22.908Z,101247.63
2022-12-16T21:23:15.178Z,101244.16
2022-12-16T21:26:01.914Z,101247.81
2022-12-16T21:28:46.989Z,101250.47
2022-12-16T21:31:32.448Z,101264.25
2022-12-16T21:34:17.567Z,101267.63
2022-12-16T21:37:02.843Z,101272.72
2022-12-16T21:39:48.073Z,101275.38
2022-12-16T21:42:36.732Z,101281.34
2022-12-16T21:45:23.750Z,101281.41
2022-12-16T21:48:11.572Z,101264.56
2022-12-16T21:50:56.998Z,101300.41
2022-12-16T21:53:42.781Z,101297.91
2022-12-16T21:56:28.289Z,101304.69
2022-12-16T21:59:14.634Z,101304.78
2022-12-16T22:01:59.763Z,101314.34
2022-12-16T22:04:45.013Z,101316.72
2022-12-16T22:07:30.446Z,101322.84
2022-12-16T22:10:15.878Z,101320.25
2022-12-16T22:13:01.175Z,101329.69
2022-12-16T22:15:47.682Z,101336.69
2022-12-16T22:18:35.041Z,101324.59
2022-12-16T22:21:23.187Z,101336.63
2022-12-16T22:24:09.081Z,101328.00
2022-12-16T22:26:54.864Z,101329.69
2022-12-16T22:29:41.673Z,101331.47
2022-12-16T22:32:28.439Z,101340.00
2022-12-16T22:35:13.905Z,101343.50
2022-12-16T22:36:20.247Z,101145.88
2022-12-16T22:37:59.069Z,101345.06
2022-12-16T22:40:40.701Z,101341.69
2022-12-16T22:43:25.816Z,101340.09
2022-12-16T22:46:17.096Z,101343.31
2022-12-16T22:49:04.461Z,101345.19
2022-12-16T22:51:49.630Z,101355.47
2022-12-16T22:54:43.051Z,101358.88
2022-12-16T22:57:28.153Z,101349.41
2022-12-16T23:00:13.268Z,101356.22
2022-12-16T23:02:58.412Z,101352.88
2022-12-16T23:05:44.890Z,101356.25
2022-12-16T23:08:30.090Z,101357.06
2022-12-16T23:11:16.806Z,101361.28
2022-12-16T23:14:02.277Z,101357.84
2022-12-16T23:16:47.821Z,101349.31
2022-12-16T23:19:33.372Z,101363.75
2022-12-16T23:22:19.758Z,101361.19
2022-12-16T23:25:05.126Z,101368.88
2022-12-16T23:27:50.350Z,101363.78
2022-12-16T23:30:35.670Z,101357.00
2022-12-16T23:33:21.666Z,101372.41
2022-12-16T23:36:06.986Z,101373.34
2022-12-16T23:38:53.467Z,101374.19
2022-12-16T23:41:38.714Z,101379.38
2022-12-16T23:44:29.369Z,101380.97
2022-12-16T23:47:14.838Z,101379.38
2022-12-16T23:50:00.165Z,101359.03
2022-12-16T23:52:45.500Z,101382.06
2022-12-16T23:55:32.081Z,101390.63
2022-12-16T23:58:17.901Z,101386.16
